createdAt,value
2019-02-09T00:01:02.326Z,63.05
2019-02-09T00:03:50.472Z,63.36
2019-02-09T00:06:39.262Z,62.68
2019-02-09T00:09:27.982Z,63.39
2019-02-09T00:12:17.158Z,62.29
2019-02-09T00:15:27.223Z,62.98
2019-02-09T00:18:17.224Z,62.29
2019-02-09T00:21:06.868Z,62.13
2019-02-09T00:23:55.938Z,62.12
2019-02-09T00:26:44.790Z,61.86
2019-02-09T00:29:33.263Z,61.87
2019-02-09T00:32:23.524Z,62.38
2019-02-09T00:35:12.513Z,61.81
2019-02-09T00:38:01.660Z,62.47
2019-02-09T00:40:50.306Z,61.39
2019-02-09T00:43:38.822Z,62.54
2019-02-09T00:46:27.490Z,62.62
2019-02-09T00:49:16.780Z,61.62
2019-02-09T00:52:05.328Z,61.89
2019-02-09T00:54:54.478Z,62.25
2019-02-09T00:57:43.148Z,62.40
2019-02-09T01:00:32.229Z,62.35
2019-02-09T01:03:20.668Z,62.58
2019-02-09T01:06:09.582Z,63.23
2019-02-09T01:08:58.362Z,63.06
2019-02-09T01:11:46.480Z,62.65
2019-02-09T01:14:36.406Z,62.86
2019-02-09T01:17:25.258Z,62.52
2019-02-09T01:20:17.824Z,62.39
2019-02-09T01:23:06.292Z,62.48
2019-02-09T01:25:55.099Z,62.71
2019-02-09T01:28:43.714Z,61.94
2019-02-09T01:31:31.886Z,62.40
2019-02-09T01:34:20.701Z,62.44
2019-02-09T01:37:09.981Z,62.67
2019-02-09T01:39:59.208Z,61.89
2019-02-09T01:42:48.130Z,62.70
2019-02-09T01:45:36.862Z,62.68
2019-02-09T01:48:25.804Z,62.58
2019-02-09T01:51:14.566Z,62.61
2019-02-09T01:54:04.102Z,63.01
2019-02-09T01:56:52.935Z,62.72
2019-02-09T01:59:41.823Z,63.00
2019-02-09T02:02:30.932Z,63.16
2019-02-09T02:05:21.374Z,63.04
2019-02-09T02:08:11.375Z,63.02
2019-02-09T02:11:00.498Z,62.94
2019-02-09T02:13:49.152Z,63.13
2019-02-09T02:16:38.010Z,63.24
2019-02-09T02:19:26.880Z,63.02
2019-02-09T02:22:15.355Z,62.83
2019-02-09T02:25:05.716Z,62.98
2019-02-09T02:27:54.708Z,63.03
2019-02-09T02:30:43.916Z,63.06
2019-02-09T02:33:32.559Z,63.12
2019-02-09T02:36:21.714Z,63.19
2019-02-09T02:39:11.160Z,63.23
2019-02-09T02:42:00.143Z,63.25
2019-02-09T02:44:48.500Z,62.70
2019-02-09T02:47:37.571Z,62.96
2019-02-09T02:50:26.447Z,62.55
2019-02-09T02:53:16.557Z,62.68
2019-02-09T02:56:05.641Z,62.10
2019-02-09T02:58:54.494Z,61.54
2019-02-09T03:01:43.473Z,61.77
2019-02-09T03:04:32.109Z,60.56
2019-02-09T03:07:20.473Z,58.54
2019-02-09T03:10:09.808Z,60.84
2019-02-09T03:12:58.877Z,61.00
2019-02-09T03:15:47.506Z,60.63
2019-02-09T03:18:36.319Z,60.48
2019-02-09T03:21:25.526Z,61.06
2019-02-09T03:24:13.930Z,60.08
2019-02-09T03:27:03.384Z,61.12
2019-02-09T03:29:52.289Z,60.83
2019-02-09T03:32:41.201Z,60.45
2019-02-09T03:35:29.812Z,60.18
2019-02-09T03:38:18.520Z,60.64
2019-02-09T03:41:06.924Z,60.42
2019-02-09T03:43:55.145Z,60.00
2019-02-09T03:46:44.328Z,59.47
2019-02-09T03:49:32.901Z,59.34
2019-02-09T03:52:22.238Z,58.71
2019-02-09T03:55:10.796Z,59.21
2019-02-09T03:57:59.114Z,59.13
2019-02-09T04:00:55.297Z,58.47
2019-02-09T04:03:37.936Z,58.68
2019-02-09T04:06:26.925Z,58.85
2019-02-09T04:09:16.260Z,58.89
2019-02-09T04:12:05.519Z,58.46
2019-02-09T04:14:53.882Z,58.27
2019-02-09T04:17:42.353Z,57.70
2019-02-09T04:20:31.171Z,57.78
2019-02-09T04:23:19.982Z,57.01
2019-02-09T04:26:08.545Z,56.62
2019-02-09T04:28:57.169Z,56.38
2019-02-09T04:31:45.311Z,56.44
2019-02-09T04:34:33.905Z,56.79
2019-02-09T04:37:22.725Z,57.85
2019-02-09T04:40:14.020Z,57.00
2019-02-09T04:43:03.984Z,57.03
2019-02-09T04:45:52.692Z,56.78
2019-02-09T04:48:40.986Z,56.81
2019-02-09T04:51:29.927Z,56.45
2019-02-09T04:54:18.872Z,56.10
2019-02-09T04:57:07.334Z,55.44
2019-02-09T04:59:56.266Z,58.13
2019-02-09T05:02:45.067Z,57.61
2019-02-09T05:05:33.160Z,58.29
2019-02-09T05:08:21.899Z,58.42
2019-02-09T05:11:10.167Z,58.49
2019-02-09T05:13:59.221Z,58.06
2019-02-09T05:16:48.403Z,58.83
2019-02-09T05:19:36.873Z,56.76
2019-02-09T05:22:25.845Z,55.22
2019-02-09T05:25:15.587Z,55.59
2019-02-09T05:28:04.307Z,54.97
2019-02-09T05:30:52.772Z,55.45
2019-02-09T05:33:41.482Z,56.08
2019-02-09T05:36:30.035Z,55.98
2019-02-09T05:39:18.527Z,56.99
2019-02-09T05:42:07.370Z,57.66
2019-02-09T05:44:55.655Z,57.10
2019-02-09T05:47:44.654Z,56.88
2019-02-09T05:50:32.945Z,56.29
2019-02-09T05:53:21.514Z,56.95
2019-02-09T05:56:10.245Z,56.28
2019-02-09T05:58:59.300Z,58.26
2019-02-09T06:01:47.970Z,58.66
2019-02-09T06:04:36.451Z,58.72
2019-02-09T06:07:25.168Z,59.51
2019-02-09T06:10:16.699Z,55.77
2019-02-09T06:13:06.177Z,55.04
2019-02-09T06:15:54.858Z,52.56
2019-02-09T06:18:43.737Z,49.35
2019-02-09T06:21:32.779Z,49.80
2019-02-09T06:24:21.231Z,48.09
2019-02-09T06:27:09.759Z,49.17
2019-02-09T06:29:58.325Z,48.81
2019-02-09T06:32:47.003Z,47.75
2019-02-09T06:35:35.827Z,48.87
2019-02-09T06:38:24.854Z,50.21
2019-02-09T06:41:13.786Z,52.85
2019-02-09T06:44:02.662Z,55.51
2019-02-09T06:46:51.576Z,58.10
2019-02-09T06:49:40.873Z,58.64
2019-02-09T06:52:31.389Z,60.06
2019-02-09T06:55:20.590Z,60.85
2019-02-09T06:58:09.391Z,61.23
2019-02-09T07:00:57.991Z,61.79
2019-02-09T07:03:46.843Z,61.55
2019-02-09T07:06:35.292Z,62.37
2019-02-09T07:09:23.858Z,62.32
2019-02-09T07:12:12.827Z,62.77
2019-02-09T07:15:01.850Z,62.74
2019-02-09T07:17:50.151Z,63.17
2019-02-09T07:20:39.294Z,63.51
2019-02-09T07:23:30.780Z,63.41
2019-02-09T07:26:19.706Z,63.58
2019-02-09T07:29:08.663Z,63.28
2019-02-09T07:31:57.879Z,63.28
2019-02-09T07:34:46.365Z,63.20
2019-02-09T07:37:35.160Z,62.87
2019-02-09T07:40:24.246Z,62.48
2019-02-09T07:43:12.715Z,62.49
2019-02-09T07:46:01.400Z,62.50
2019-02-09T07:48:50.635Z,62.45
2019-02-09T07:51:39.288Z,62.36
2019-02-09T07:54:28.056Z,62.59
2019-02-09T07:57:16.245Z,62.42
2019-02-09T08:00:08.853Z,62.39
2019-02-09T08:02:57.702Z,62.43
2019-02-09T08:05:46.044Z,62.55
2019-02-09T08:08:34.836Z,62.65
2019-02-09T08:11:24.071Z,62.51
2019-02-09T08:14:12.955Z,62.28
2019-02-09T08:17:01.978Z,62.16
2019-02-09T08:19:50.551Z,61.84
2019-02-09T08:22:39.655Z,61.65
2019-02-09T08:25:30.339Z,61.12
2019-02-09T08:28:19.521Z,60.84
2019-02-09T08:31:08.640Z,60.26
2019-02-09T08:33:57.240Z,60.23
2019-02-09T08:36:45.837Z,59.94
2019-02-09T08:39:34.445Z,60.19
2019-02-09T08:42:24.250Z,60.07
2019-02-09T08:45:17.265Z,60.20
2019-02-09T08:48:06.153Z,60.25
2019-02-09T08:51:00.201Z,60.22
2019-02-09T08:53:49.268Z,59.98
2019-02-09T08:56:38.170Z,60.11
2019-02-09T08:59:26.331Z,59.89
2019-02-09T09:02:20.458Z,60.02
2019-02-09T09:05:09.702Z,60.06
2019-02-09T09:07:56.761Z,59.99
2019-02-09T09:10:45.650Z,60.04
2019-02-09T09:13:34.828Z,59.80
2019-02-09T09:16:23.094Z,59.69
2019-02-09T09:19:12.176Z,59.48
2019-02-09T09:22:01.372Z,59.18
2019-02-09T09:24:50.688Z,58.98
2019-02-09T09:27:39.444Z,58.66
2019-02-09T09:30:28.442Z,58.16
2019-02-09T09:33:17.144Z,58.26
2019-02-09T09:36:05.910Z,58.37
2019-02-09T09:38:54.905Z,57.81
2019-02-09T09:41:43.909Z,57.86
2019-02-09T09:44:32.668Z,58.10
2019-02-09T09:47:21.646Z,57.88
2019-02-09T09:50:12.885Z,57.57
2019-02-09T09:53:01.333Z,57.34
2019-02-09T09:55:50.137Z,57.34
2019-02-09T09:58:39.128Z,57.01
2019-02-09T10:01:27.472Z,57.26
2019-02-09T10:04:16.600Z,56.36
2019-02-09T10:07:04.789Z,55.94
2019-02-09T10:09:54.001Z,56.06
2019-02-09T10:12:43.545Z,55.89
2019-02-09T10:15:31.754Z,55.51
2019-02-09T10:18:19.900Z,55.65
2019-02-09T10:21:08.556Z,55.12
2019-02-09T10:23:57.393Z,55.31
2019-02-09T10:26:46.396Z,55.32
2019-02-09T10:29:34.827Z,54.41
2019-02-09T10:32:23.953Z,54.91
2019-02-09T10:35:12.784Z,54.38
2019-02-09T10:38:01.316Z,54.76
2019-02-09T10:40:50.266Z,54.21
2019-02-09T10:43:40.883Z,53.84
2019-02-09T10:46:29.747Z,53.56
2019-02-09T10:49:18.650Z,53.23
2019-02-09T10:52:07.593Z,52.55
2019-02-09T10:54:56.015Z,52.01
2019-02-09T10:57:45.093Z,51.89
2019-02-09T11:00:43.395Z,50.99
2019-02-09T11:03:32.367Z,51.19
2019-02-09T11:06:21.214Z,50.04
2019-02-09T11:09:17.361Z,50.01
2019-02-09T11:12:06.799Z,49.69
2019-02-09T11:14:55.548Z,49.07
2019-02-09T11:17:45.033Z,48.85
2019-02-09T11:20:33.610Z,48.29
2019-02-09T11:23:27.420Z,48.61
2019-02-09T11:26:16.603Z,48.63
2019-02-09T11:29:05.706Z,48.25
2019-02-09T11:31:55.461Z,48.84
2019-02-09T11:34:44.689Z,48.21
2019-02-09T11:37:33.367Z,48.84
2019-02-09T11:40:22.243Z,49.55
2019-02-09T11:43:11.095Z,49.29
2019-02-09T11:46:00.198Z,49.97
2019-02-09T11:48:50.001Z,48.18
2019-02-09T11:51:38.486Z,47.50
2019-02-09T11:54:27.184Z,46.25
2019-02-09T11:57:15.862Z,45.46
2019-02-09T12:00:05.547Z,45.65
2019-02-09T12:03:02.137Z,45.28
2019-02-09T12:05:45.329Z,44.97
2019-02-09T12:08:35.706Z,45.98
2019-02-09T12:11:24.463Z,45.76
2019-02-09T12:14:13.242Z,44.46
2019-02-09T12:17:01.927Z,44.30
2019-02-09T12:19:51.010Z,44.67
2019-02-09T12:22:40.397Z,44.46
2019-02-09T12:25:31.649Z,44.48
2019-02-09T12:28:20.125Z,44.48
2019-02-09T12:31:09.031Z,44.56
2019-02-09T12:33:58.784Z,45.49
2019-02-09T12:36:47.937Z,45.73
2019-02-09T12:39:36.736Z,46.87
2019-02-09T12:42:25.461Z,46.91
2019-02-09T12:45:16.840Z,47.15
2019-02-09T12:48:07.327Z,47.22
2019-02-09T12:50:55.682Z,47.93
2019-02-09T12:53:44.631Z,47.79
2019-02-09T12:56:33.112Z,46.85
2019-02-09T12:59:22.144Z,46.27
2019-02-09T13:02:10.877Z,46.39
2019-02-09T13:04:59.547Z,46.64
2019-02-09T13:07:48.615Z,46.43
2019-02-09T13:10:36.895Z,46.69
2019-02-09T13:13:25.279Z,46.57
2019-02-09T13:16:13.976Z,46.53
2019-02-09T13:19:02.929Z,46.15
2019-02-09T13:21:51.688Z,47.58
2019-02-09T13:24:40.132Z,48.15
2019-02-09T13:27:29.003Z,48.26
2019-02-09T13:30:20.719Z,48.50
2019-02-09T13:33:08.893Z,48.51
2019-02-09T13:35:57.539Z,49.31
2019-02-09T13:38:46.133Z,49.84
2019-02-09T13:41:35.463Z,49.70
2019-02-09T13:44:24.506Z,49.76
2019-02-09T13:47:12.850Z,49.64
2019-02-09T13:50:01.785Z,49.34
2019-02-09T13:52:50.406Z,48.57
2019-02-09T13:55:38.697Z,48.46
2019-02-09T13:58:27.422Z,48.42
2019-02-09T14:01:16.505Z,48.71
2019-02-09T14:04:05.565Z,49.20
2019-02-09T14:06:54.052Z,49.84
2019-02-09T14:09:43.090Z,50.14
2019-02-09T14:12:32.019Z,50.30
2019-02-09T14:15:22.755Z,50.37
2019-02-09T14:18:11.751Z,50.43
2019-02-09T14:21:00.709Z,50.43
2019-02-09T14:23:50.063Z,50.75
2019-02-09T14:26:38.746Z,50.72
2019-02-09T14:29:29.571Z,50.97
2019-02-09T14:32:22.611Z,51.15
2019-02-09T14:35:13.899Z,50.83
2019-02-09T14:38:02.611Z,50.91
2019-02-09T14:40:51.708Z,50.76
2019-02-09T14:43:41.944Z,51.10
2019-02-09T14:46:30.844Z,50.91
2019-02-09T14:49:20.212Z,50.72
2019-02-09T14:52:13.836Z,50.74
2019-02-09T14:55:03.407Z,50.97
2019-02-09T14:57:52.666Z,50.81
2019-02-09T15:00:44.146Z,50.71
2019-02-09T15:03:33.332Z,50.91
2019-02-09T15:06:22.221Z,51.35
2019-02-09T15:09:11.710Z,50.95
2019-02-09T15:12:00.787Z,51.02
2019-02-09T15:14:49.649Z,51.48
2019-02-09T15:17:40.281Z,51.27
2019-02-09T15:20:32.124Z,51.39
2019-02-09T15:23:21.000Z,51.39
2019-02-09T15:26:09.637Z,51.57
2019-02-09T15:28:58.755Z,51.75
2019-02-09T15:31:47.434Z,51.67
2019-02-09T15:34:36.325Z,51.84
2019-02-09T15:37:25.236Z,52.19
2019-02-09T15:40:16.668Z,52.08
2019-02-09T15:43:05.358Z,52.18
2019-02-09T15:45:53.967Z,52.37
2019-02-09T15:48:42.917Z,52.35
2019-02-09T15:51:32.077Z,52.32
2019-02-09T15:54:21.034Z,52.69
2019-02-09T15:57:09.477Z,52.75
2019-02-09T15:59:59.811Z,52.76
2019-02-09T16:02:51.101Z,52.69
2019-02-09T16:05:40.076Z,52.72
2019-02-09T16:08:29.439Z,52.88
2019-02-09T16:11:20.361Z,53.07
2019-02-09T16:14:14.035Z,53.08
2019-02-09T16:17:03.328Z,53.45
2019-02-09T16:19:52.531Z,53.38
2019-02-09T16:22:41.918Z,53.70
2019-02-09T16:25:31.288Z,53.96
2019-02-09T16:28:23.329Z,53.91
2019-02-09T16:31:11.756Z,54.25
2019-02-09T16:34:00.183Z,54.32
2019-02-09T16:36:53.936Z,54.37
2019-02-09T16:39:42.407Z,54.63
2019-02-09T16:42:31.236Z,54.88
2019-02-09T16:45:31.311Z,55.17
2019-02-09T16:48:19.841Z,55.68
2019-02-09T16:51:09.200Z,55.77
2019-02-09T16:53:58.606Z,55.91
2019-02-09T16:56:47.966Z,56.09
2019-02-09T16:59:36.967Z,56.10
2019-02-09T17:02:26.045Z,56.55
2019-02-09T17:05:15.253Z,56.69
2019-02-09T17:08:04.896Z,56.63
2019-02-09T17:10:56.478Z,57.04
2019-02-09T17:13:46.137Z,57.02
2019-02-09T17:16:35.444Z,57.37
2019-02-09T17:19:27.891Z,57.78
2019-02-09T17:22:20.110Z,57.83
2019-02-09T17:25:10.324Z,58.07
2019-02-09T17:27:59.676Z,58.48
2019-02-09T17:30:48.536Z,58.63
2019-02-09T17:33:38.195Z,58.60
2019-02-09T17:36:27.437Z,58.90
2019-02-09T17:39:16.788Z,58.93
2019-02-09T17:42:06.466Z,59.01
2019-02-09T17:44:55.656Z,59.18
2019-02-09T17:47:44.464Z,58.98
2019-02-09T17:50:33.784Z,59.20
2019-02-09T17:53:22.193Z,59.20
2019-02-09T17:56:11.127Z,59.05
2019-02-09T17:59:00.440Z,59.15
2019-02-09T18:01:49.711Z,59.18
2019-02-09T18:04:38.259Z,59.17
2019-02-09T18:07:27.232Z,59.14
2019-02-09T18:10:16.685Z,59.00
2019-02-09T18:13:04.937Z,58.75
2019-02-09T18:15:53.693Z,58.76
2019-02-09T18:18:42.337Z,58.73
2019-02-09T18:21:31.265Z,58.84
2019-02-09T18:24:20.097Z,58.99
2019-02-09T18:27:08.302Z,58.99
2019-02-09T18:29:57.391Z,58.90
2019-02-09T18:32:46.046Z,58.70
2019-02-09T18:35:34.882Z,58.69
2019-02-09T18:38:23.099Z,58.60
2019-02-09T18:41:11.537Z,58.57
2019-02-09T18:44:00.360Z,58.57
2019-02-09T18:46:49.683Z,58.21
2019-02-09T18:49:38.588Z,57.92
2019-02-09T18:52:27.567Z,57.77
2019-02-09T18:55:23.965Z,57.52
2019-02-09T18:58:12.944Z,57.38
2019-02-09T19:01:01.595Z,57.02
2019-02-09T19:03:50.773Z,56.93
2019-02-09T19:06:39.758Z,56.83
2019-02-09T19:09:28.483Z,56.65
2019-02-09T19:12:17.325Z,56.39
2019-02-09T19:15:07.535Z,56.49
2019-02-09T19:17:56.135Z,56.33
2019-02-09T19:20:48.079Z,55.97
2019-02-09T19:23:36.931Z,56.01
2019-02-09T19:26:26.738Z,55.87
2019-02-09T19:29:15.090Z,55.94
2019-02-09T19:32:04.300Z,55.96
2019-02-09T19:34:53.310Z,56.24
2019-02-09T19:37:42.546Z,56.00
2019-02-09T19:40:31.089Z,55.92
2019-02-09T19:43:20.085Z,55.82
2019-02-09T19:46:09.740Z,55.57
2019-02-09T19:48:58.778Z,55.71
2019-02-09T19:51:47.605Z,55.69
2019-02-09T19:54:37.025Z,55.79
2019-02-09T19:57:25.866Z,55.60
2019-02-09T20:00:36.236Z,55.33
2019-02-09T20:03:24.948Z,55.47
2019-02-09T20:06:13.893Z,55.58
2019-02-09T20:09:04.461Z,55.26
2019-02-09T20:11:53.154Z,55.23
2019-02-09T20:14:42.078Z,55.15
2019-02-09T20:17:30.879Z,55.21
2019-02-09T20:20:20.445Z,54.91
2019-02-09T20:23:09.659Z,54.57
2019-02-09T20:25:58.953Z,54.77
2019-02-09T20:28:48.224Z,54.49
2019-02-09T20:31:37.262Z,54.71
2019-02-09T20:34:25.828Z,54.67
2019-02-09T20:37:14.487Z,54.58
2019-02-09T20:40:05.599Z,54.44
2019-02-09T20:43:01.499Z,54.29
2019-02-09T20:45:44.430Z,54.28
2019-02-09T20:48:34.496Z,54.24
2019-02-09T20:51:23.987Z,54.21
2019-02-09T20:54:13.181Z,54.01
2019-02-09T20:57:02.534Z,54.19
2019-02-09T20:59:51.637Z,54.31
2019-02-09T21:02:39.892Z,54.10
2019-02-09T21:05:36.005Z,54.05
2019-02-09T21:08:20.236Z,53.92
2019-02-09T21:11:09.518Z,54.13
2019-02-09T21:13:57.802Z,54.09
2019-02-09T21:16:51.816Z,54.04
2019-02-09T21:19:37.772Z,54.08
2019-02-09T21:22:26.871Z,54.14
2019-02-09T21:25:24.717Z,53.92
2019-02-09T21:28:13.273Z,53.97
2019-02-09T21:31:02.194Z,54.08
2019-02-09T21:33:51.089Z,54.08
2019-02-09T21:36:40.047Z,53.96
2019-02-09T21:39:33.747Z,54.10
2019-02-09T21:42:19.280Z,54.14
2019-02-09T21:45:09.057Z,54.06
2019-02-09T21:47:58.286Z,53.86
2019-02-09T21:50:47.319Z,54.03
2019-02-09T21:53:35.573Z,53.97
2019-02-09T21:56:25.802Z,54.18
2019-02-09T21:59:14.774Z,54.30
2019-02-09T22:02:03.640Z,54.18
2019-02-09T22:04:52.003Z,54.28
2019-02-09T22:07:40.648Z,54.25
2019-02-09T22:10:33.848Z,54.26
2019-02-09T22:13:20.370Z,54.37
2019-02-09T22:16:09.314Z,54.38
2019-02-09T22:18:58.198Z,54.43
2019-02-09T22:21:47.430Z,54.59
2019-02-09T22:24:36.548Z,54.58
2019-02-09T22:27:24.786Z,54.69
2019-02-09T22:30:16.200Z,54.79
2019-02-09T22:33:04.788Z,54.90
2019-02-09T22:35:59.803Z,55.13
2019-02-09T22:38:44.551Z,55.26
2019-02-09T22:41:33.697Z,55.16
2019-02-09T22:44:23.068Z,54.93
2019-02-09T22:47:11.644Z,55.37
2019-02-09T22:50:00.422Z,55.32
2019-02-09T22:52:49.216Z,55.33
2019-02-09T22:55:37.389Z,56.09
2019-02-09T22:58:26.228Z,56.16
2019-02-09T23:01:40.928Z,56.18
2019-02-09T23:04:47.533Z,55.86
2019-02-09T23:07:36.533Z,56.39
2019-02-09T23:10:25.125Z,56.09
2019-02-09T23:13:13.908Z,55.31
2019-02-09T23:16:02.951Z,55.92
2019-02-09T23:18:51.373Z,56.57
2019-02-09T23:21:40.508Z,55.83
2019-02-09T23:24:29.320Z,56.51
2019-02-09T23:27:18.093Z,56.64
2019-02-09T23:30:10.567Z,56.97
2019-02-09T23:32:59.494Z,56.76
2019-02-09T23:35:47.988Z,56.80
2019-02-09T23:38:36.518Z,56.94
2019-02-09T23:41:25.438Z,57.00
2019-02-09T23:44:14.237Z,56.98
2019-02-09T23:47:02.527Z,57.05
2019-02-09T23:49:51.241Z,57.19
2019-02-09T23:52:39.388Z,57.56
2019-02-09T23:55:28.195Z,57.38
2019-02-09T23:58:16.914Z,57.70
